Time,TemperatureF,DewpointF,PressureIn,WindDirection,WindDirectionDegrees,WindSpeedMPH,WindSpeedGustMPH,Humidity,HourlyPrecipIn,Conditions,Clouds,dailyrainin,SoftwareType,DateUTC
2013-02-22 00:00:00,21.4,18.4,30.38,WSW,258,0.0,2.0,88,0.00,,OVC010,0.00,VWS V14.01,2013-02-22 05:00:00,
2013-02-22 00:02:00,21.4,18.4,30.38,WSW,247,1.0,2.0,88,0.00,,OVC010,0.00,VWS V14.01,2013-02-22 05:02:00,
2013-02-22 00:07:00,21.3,18.3,30.38,WSW,253,2.0,3.0,88,0.00,,OVC010,0.00,VWS V14.01,2013-02-22 05:07:00,
2013-02-22 00:12:00,21.2,18.2,30.37,WSW,248,2.0,3.0,88,0.00,,OVC010,0.00,VWS V14.01,2013-02-22 05:12:00,
2013-02-22 00:17:00,21.2,18.2,30.37,WSW,242,2.0,3.0,88,0.00,,OVC010,0.00,VWS V14.01,2013-02-22 05:17:00,
2013-02-22 00:22:00,21.2,18.2,30.37,WSW,238,1.0,3.0,88,0.00,,OVC010,0.00,VWS V14.01,2013-02-22 05:22:00,
2013-02-22 00:27:00,21.1,18.1,30.37,WSW,239,0.0,3.0,88,0.00,,OVC010,0.00,VWS V14.01,2013-02-22 05:27:00,
2013-02-22 00:30:00,21.1,18.1,30.38,WSW,241,0.0,0.0,88,0.00,,OVC,0.00,VWS V14.01,2013-02-22 05:30:00,
2013-02-22 00:33:00,21.1,18.1,30.36,SW,236,0.0,0.0,88,0.00,,OVC010,0.00,VWS V14.01,2013-02-22 05:33:00,
2013-02-22 00:38:00,21.1,18.1,30.36,SW,235,0.0,1.0,88,0.00,,OVC010,0.00,VWS V14.01,2013-02-22 05:38:00,
2013-02-22 00:43:00,21.1,18.1,30.36,WSW,238,0.0,1.0,88,0.00,,OVC010,0.00,VWS V14.01,2013-02-22 05:43:00,
2013-02-22 00:48:00,21.1,18.1,30.37,WSW,239,0.0,1.0,88,0.00,,OVC010,0.00,VWS V14.01,2013-02-22 05:48:00,
2013-02-22 00:53:00,21.1,18.1,30.37,WSW,238,0.0,1.0,88,0.00,,OVC010,0.00,VWS V14.01,2013-02-22 05:53:00,
2013-02-22 00:58:00,21.1,18.1,30.37,WSW,238,0.0,1.0,88,0.00,,OVC010,0.00,VWS V14.01,2013-02-22 05:58:00,
2013-02-22 01:00:00,21.3,18.3,30.36,South,183,0.0,0.0,88,0.00,,OVC,0.00,VWS V14.01,2013-02-22 06:00:00,
2013-02-22 01:03:00,21.1,18.1,30.37,WSW,245,0.0,0.0,88,0.00,,OVC024,0.00,VWS V14.01,2013-02-22 06:03:00,
2013-02-22 01:09:00,21.2,18.2,30.37,WSW,246,0.0,0.0,88,0.00,,OVC024,0.00,VWS V14.01,2013-02-22 06:09:00,
2013-02-22 01:14:00,21.1,18.1,30.38,WSW,253,0.0,0.0,88,0.00,,OVC024,0.00,VWS V14.01,2013-02-22 06:14:00,
2013-02-22 01:19:00,21.1,18.1,30.38,West,262,0.0,0.0,88,0.00,,OVC024,0.00,VWS V14.01,2013-02-22 06:19:00,
2013-02-22 01:24:00,21.1,18.1,30.38,West,259,0.0,0.0,88,0.00,,OVC024,0.00,VWS V14.01,2013-02-22 06:24:00,
2013-02-22 01:29:00,21.1,18.1,30.38,WSW,248,0.0,0.0,88,0.00,,OVC024,0.00,VWS V14.01,2013-02-22 06:29:00,
2013-02-22 01:30:00,21.6,18.9,30.38,SW,225,0.0,1.0,89,0.00,,OVC,0.00,VWS V14.01,2013-02-22 06:30:00,
2013-02-22 01:34:00,21.1,18.1,30.38,WSW,238,0.0,0.0,88,0.00,,OVC024,0.00,VWS V14.01,2013-02-22 06:34:00,
2013-02-22 01:39:00,21.1,18.4,30.38,WSW,238,0.0,0.0,89,0.00,,OVC024,0.00,VWS V14.01,2013-02-22 06:39:00,
2013-02-22 01:44:00,21.2,18.5,30.37,WSW,238,0.0,0.0,89,0.00,,OVC024,0.00,VWS V14.01,2013-02-22 06:44:00,
2013-02-22 01:49:00,21.2,18.5,30.37,SW,222,0.0,0.0,89,0.00,,OVC024,0.00,VWS V14.01,2013-02-22 06:49:00,
2013-02-22 01:55:00,21.3,18.3,30.37,South,187,0.0,0.0,88,0.00,,OVC024,0.00,VWS V14.01,2013-02-22 06:55:00,
2013-02-22 02:00:00,21.3,18.3,30.37,South,183,0.0,0.0,88,0.00,,OVC024,0.00,VWS V14.01,2013-02-22 07:00:00,
2013-02-22 02:05:00,21.4,18.7,30.36,SSE,163,0.0,0.0,89,0.00,,OVC024,0.00,VWS V14.01,2013-02-22 07:05:00,
2013-02-22 02:10:00,21.5,18.5,30.36,SSW,198,0.0,1.0,88,0.00,,OVC024,0.00,VWS V14.01,2013-02-22 07:10:00,
2013-02-22 02:15:00,21.5,18.8,30.37,SSW,200,0.0,1.0,89,0.00,,OVC024,0.00,VWS V14.01,2013-02-22 07:15:00,
2013-02-22 02:20:00,21.5,18.8,30.37,SSW,200,0.0,1.0,89,0.00,,OVC024,0.00,VWS V14.01,2013-02-22 07:20:00,
2013-02-22 02:25:00,21.5,18.8,30.37,SW,225,0.0,1.0,89,0.00,,OVC024,0.00,VWS V14.01,2013-02-22 07:25:00,
2013-02-22 02:30:00,21.6,18.9,30.37,SW,225,0.0,1.0,89,0.00,,OVC024,0.00,VWS V14.01,2013-02-22 07:30:00,
2013-02-22 02:36:00,21.6,18.9,30.38,SW,226,0.0,0.0,89,0.00,,OVC012,0.00,VWS V14.01,2013-02-22 07:36:00,
2013-02-22 02:41:00,21.7,19.0,30.39,SW,226,0.0,1.0,89,0.00,,OVC012,0.00,VWS V14.01,2013-02-22 07:41:00,
2013-02-22 02:46:00,21.8,19.1,30.38,SW,225,0.0,1.0,89,0.00,,OVC012,0.00,VWS V14.01,2013-02-22 07:46:00,
2013-02-22 02:51:00,21.8,19.1,30.38,SW,216,0.0,1.0,89,0.00,,OVC012,0.00,VWS V14.01,2013-02-22 07:51:00,
2013-02-22 02:56:00,21.9,19.2,30.38,SW,218,0.0,1.0,89,0.00,,OVC012,0.00,VWS V14.01,2013-02-22 07:56:00,
2013-02-22 03:00:00,22.4,19.7,30.37,SW,219,4.0,5.0,89,0.00,,OVC,0.00,VWS V14.01,2013-02-22 08:00:00,
2013-02-22 03:01:00,21.9,19.2,30.38,SE,135,0.0,2.0,89,0.00,,OVC012,0.00,VWS V14.01,2013-02-22 08:01:00,
2013-02-22 03:06:00,22.1,19.4,30.38,South,188,1.0,1.0,89,0.00,,OVC012,0.00,VWS V14.01,2013-02-22 08:06:00,
2013-02-22 03:11:00,22.1,19.4,30.38,SSE,152,1.0,1.0,89,0.00,,OVC012,0.00,VWS V14.01,2013-02-22 08:11:00,
2013-02-22 03:16:00,22.2,19.5,30.38,SSE,152,1.0,3.0,89,0.00,,OVC012,0.00,VWS V14.01,2013-02-22 08:16:00,
2013-02-22 03:21:00,22.3,19.6,30.37,SSW,196,1.0,3.0,89,0.00,,OVC012,0.00,VWS V14.01,2013-02-22 08:21:00,
2013-02-22 03:27:00,22.3,19.6,30.38,SE,130,1.0,3.0,89,0.00,,OVC012,0.00,VWS V14.01,2013-02-22 08:27:00,
2013-02-22 03:30:00,22.4,19.9,30.34,SSE,165,1.0,6.0,90,0.00,,OVC,0.00,VWS V14.01,2013-02-22 08:30:00,
2013-02-22 03:32:00,22.3,19.6,30.38,SSW,208,3.0,5.0,89,0.00,,OVC010,0.00,VWS V14.01,2013-02-22 08:32:00,
2013-02-22 03:37:00,22.3,19.6,30.38,South,188,1.0,4.0,89,0.00,,OVC010,0.00,VWS V14.01,2013-02-22 08:37:00,
2013-02-22 03:42:00,22.4,19.7,30.38,SSW,193,3.0,4.0,89,0.00,,OVC010,0.00,VWS V14.01,2013-02-22 08:42:00,
2013-02-22 03:47:00,22.4,19.7,30.38,SW,219,0.0,4.0,89,0.00,,OVC010,0.00,VWS V14.01,2013-02-22 08:47:00,
2013-02-22 03:52:00,22.4,19.7,30.38,South,179,2.0,4.0,89,0.00,,OVC010,0.00,VWS V14.01,2013-02-22 08:52:00,
2013-02-22 03:57:00,22.5,19.8,30.38,SSE,160,5.0,5.0,89,0.00,,OVC010,0.00,VWS V14.01,2013-02-22 08:57:00,
2013-02-22 04:00:00,22.3,19.8,30.35,SW,225,3.0,6.0,90,0.00,,OVC,0.00,VWS V14.01,2013-02-22 09:00:00,
2013-02-22 04:02:00,22.4,19.7,30.37,South,187,3.0,5.0,89,0.00,,OVC010,0.00,VWS V14.01,2013-02-22 09:02:00,
2013-02-22 04:07:00,22.5,19.8,30.36,SSW,194,1.0,4.0,89,0.00,,OVC010,0.00,VWS V14.01,2013-02-22 09:07:00,
2013-02-22 04:13:00,22.5,19.8,30.35,SSW,203,2.0,5.0,89,0.00,,OVC010,0.00,VWS V14.01,2013-02-22 09:13:00,
2013-02-22 04:18:00,22.5,19.8,30.35,SE,132,6.0,6.0,89,0.00,,OVC010,0.00,VWS V14.01,2013-02-22 09:18:00,
2013-02-22 04:23:00,22.5,19.8,30.35,SE,141,1.0,6.0,89,0.00,,OVC010,0.00,VWS V14.01,2013-02-22 09:23:00,
2013-02-22 04:28:00,22.5,20.0,30.35,SSW,197,3.0,6.0,90,0.00,,OVC010,0.00,VWS V14.01,2013-02-22 09:28:00,
2013-02-22 04:30:00,22.4,19.9,30.35,SE,145,1.0,6.0,90,0.00,,OVC,0.00,VWS V14.01,2013-02-22 09:30:00,
2013-02-22 04:33:00,22.4,19.9,30.34,South,186,2.0,2.0,90,0.00,,OVC010,0.00,VWS V14.01,2013-02-22 09:33:00,
2013-02-22 04:38:00,22.4,19.9,30.35,SE,124,1.0,4.0,90,0.00,,OVC010,0.00,VWS V14.01,2013-02-22 09:38:00,
2013-02-22 04:43:00,22.4,19.9,30.35,SSW,197,2.0,6.0,90,0.00,,OVC010,0.00,VWS V14.01,2013-02-22 09:43:00,
2013-02-22 04:48:00,22.4,19.9,30.34,South,176,6.0,6.0,90,0.00,,OVC010,0.00,VWS V14.01,2013-02-22 09:48:00,
2013-02-22 04:54:00,22.3,19.8,30.35,SSE,152,3.0,6.0,90,0.00,,OVC010,0.00,VWS V14.01,2013-02-22 09:54:00,
2013-02-22 04:59:00,22.3,19.8,30.35,SSW,208,1.0,6.0,90,0.00,,OVC010,0.00,VWS V14.01,2013-02-22 09:59:00,
2013-02-22 05:00:00,21.8,19.3,30.36,SW,218,0.0,3.0,90,0.00,,OVC,0.00,VWS V14.01,2013-02-22 10:00:00,
2013-02-22 05:04:00,22.3,19.8,30.35,ESE,122,3.0,3.0,90,0.00,,OVC010,0.00,VWS V14.01,2013-02-22 10:04:00,
2013-02-22 05:09:00,22.3,19.8,30.36,SW,233,2.0,6.0,90,0.00,,OVC010,0.00,VWS V14.01,2013-02-22 10:09:00,
2013-02-22 05:14:00,22.3,19.8,30.36,SE,131,0.0,6.0,90,0.00,,OVC010,0.00,VWS V14.01,2013-02-22 10:14:00,
2013-02-22 05:19:00,22.4,19.9,30.36,SSW,193,1.0,6.0,90,0.00,,OVC010,0.00,VWS V14.01,2013-02-22 10:19:00,
2013-02-22 05:24:00,22.4,19.9,30.36,SSW,203,1.0,6.0,90,0.00,,OVC010,0.00,VWS V14.01,2013-02-22 10:24:00,
2013-02-22 05:29:00,22.4,19.9,30.35,SSW,206,0.0,6.0,90,0.00,,OVC010,0.00,VWS V14.01,2013-02-22 10:29:00,
2013-02-22 05:30:00,21.1,18.9,30.37,SW,214,0.0,0.0,91,0.00,,OVC,0.00,VWS V14.01,2013-02-22 10:30:00,
2013-02-22 05:35:00,22.3,19.8,30.36,South,174,2.0,3.0,90,0.00,,OVC010,0.00,VWS V14.01,2013-02-22 10:35:00,
2013-02-22 05:40:00,22.3,19.8,30.36,SSW,198,0.0,3.0,90,0.00,,OVC010,0.00,VWS V14.01,2013-02-22 10:40:00,
2013-02-22 05:45:00,22.2,19.7,30.36,SSW,198,0.0,3.0,90,0.00,,OVC010,0.00,VWS V14.01,2013-02-22 10:45:00,
2013-02-22 05:50:00,22.1,19.6,30.35,SSW,200,0.0,3.0,90,0.00,,OVC010,0.00,VWS V14.01,2013-02-22 10:50:00,
2013-02-22 05:55:00,22.0,19.5,30.36,SSW,200,0.0,3.0,90,0.00,,OVC010,0.00,VWS V14.01,2013-02-22 10:55:00,
2013-02-22 06:00:00,21.9,19.4,30.36,SSW,205,0.0,3.0,90,0.00,,OVC010,0.00,VWS V14.01,2013-02-22 11:00:00,
2013-02-22 06:05:00,21.7,19.2,30.36,SW,218,0.0,0.0,90,0.00,,OVC010,0.00,VWS V14.01,2013-02-22 11:05:00,
2013-02-22 06:11:00,21.6,19.1,30.37,SW,220,0.0,0.0,90,0.00,,OVC010,0.00,VWS V14.01,2013-02-22 11:11:00,
2013-02-22 06:16:00,21.5,19.0,30.37,SW,219,0.0,0.0,90,0.00,,OVC010,0.00,VWS V14.01,2013-02-22 11:16:00,
2013-02-22 06:21:00,21.4,18.9,30.37,SW,221,0.0,0.0,90,0.00,,OVC010,0.00,VWS V14.01,2013-02-22 11:21:00,
2013-02-22 06:26:00,21.3,18.8,30.37,SW,214,0.0,0.0,90,0.00,,OVC010,0.00,VWS V14.01,2013-02-22 11:26:00,
2013-02-22 06:30:00,21.6,19.4,30.35,ESE,115,1.0,3.0,91,0.00,,OVC,0.00,VWS V14.01,2013-02-22 11:30:00,
2013-02-22 06:31:00,21.2,19.0,30.37,SW,214,0.0,0.0,91,0.00,,OVC010,0.00,VWS V14.01,2013-02-22 11:31:00,
2013-02-22 06:36:00,21.1,18.9,30.36,SSW,203,0.0,0.0,91,0.00,,SCT010,0.00,VWS V14.01,2013-02-22 11:36:00,
2013-02-22 06:41:00,21.1,18.9,30.37,SE,134,0.0,0.0,91,0.00,,SCT010,0.00,VWS V14.01,2013-02-22 11:41:00,
2013-02-22 06:46:00,21.1,18.9,30.36,East,82,0.0,0.0,91,0.00,,SCT010,0.00,VWS V14.01,2013-02-22 11:46:00,
2013-02-22 06:52:00,21.1,18.9,30.36,SE,136,0.0,0.0,91,0.00,,SCT010,0.00,VWS V14.01,2013-02-22 11:52:00,
2013-02-22 06:57:00,21.1,18.9,30.36,SSW,193,0.0,0.0,91,0.00,,SCT010,0.00,VWS V14.01,2013-02-22 11:57:00,
2013-02-22 07:00:00,22.1,19.6,30.34,ESE,111,3.0,5.0,90,0.00,,OVC,0.00,VWS V14.01,2013-02-22 12:00:00,
2013-02-22 07:02:00,21.1,18.9,30.36,SE,129,1.0,2.0,91,0.00,,SCT010,0.00,VWS V14.01,2013-02-22 12:02:00,
2013-02-22 07:07:00,21.1,18.9,30.36,SSW,198,0.0,1.0,91,0.00,,SCT010,0.00,VWS V14.01,2013-02-22 12:07:00,
2013-02-22 07:12:00,21.2,19.0,30.36,South,179,1.0,1.0,91,0.00,,SCT010,0.00,VWS V14.01,2013-02-22 12:12:00,
2013-02-22 07:17:00,21.3,19.1,30.36,SSE,163,0.0,2.0,91,0.00,,SCT010,0.00,VWS V14.01,2013-02-22 12:17:00,
2013-02-22 07:22:00,21.4,19.2,30.36,SE,138,0.0,2.0,91,0.00,,SCT010,0.00,VWS V14.01,2013-02-22 12:22:00,
2013-02-22 07:28:00,21.5,19.3,30.35,WSW,240,0.0,3.0,91,0.00,,SCT010,0.00,VWS V14.01,2013-02-22 12:28:00,
2013-02-22 07:30:00,22.4,19.9,30.34,SE,125,2.0,6.0,90,0.00,,OVC,0.00,VWS V14.01,2013-02-22 12:30:00,
2013-02-22 07:33:00,21.6,19.4,30.35,ESE,115,0.0,1.0,91,0.00,,BKN010,0.00,VWS V14.01,2013-02-22 12:33:00,
2013-02-22 07:38:00,21.7,19.5,30.35,SW,222,3.0,4.0,91,0.00,,BKN010,0.00,VWS V14.01,2013-02-22 12:38:00,
2013-02-22 07:43:00,21.9,19.7,30.35,SSW,195,3.0,4.0,91,0.00,,BKN010,0.00,VWS V14.01,2013-02-22 12:43:00,
2013-02-22 07:48:00,22.0,19.8,30.34,WSW,252,3.0,4.0,91,0.00,,BKN010,0.00,VWS V14.01,2013-02-22 12:48:00,
2013-02-22 07:53:00,22.0,19.5,30.34,SSW,212,2.0,5.0,90,0.00,,BKN010,0.00,VWS V14.01,2013-02-22 12:53:00,
2013-02-22 07:58:00,22.1,19.6,30.34,SSW,200,1.0,5.0,90,0.00,,BKN010,0.00,VWS V14.01,2013-02-22 12:58:00,
2013-02-22 08:00:00,22.8,20.3,30.32,SSW,198,2.0,8.0,90,0.00,,OVC,0.00,VWS V14.01,2013-02-22 13:00:00,
2013-02-22 08:04:00,22.1,19.6,30.34,South,177,3.0,3.0,90,0.00,,BKN010,0.00,VWS V14.01,2013-02-22 13:04:00,
2013-02-22 08:09:00,22.2,19.7,30.34,South,187,0.0,5.0,90,0.00,,BKN010,0.00,VWS V14.01,2013-02-22 13:09:00,
2013-02-22 08:14:00,22.2,19.7,30.34,South,179,2.0,6.0,90,0.00,,BKN010,0.00,VWS V14.01,2013-02-22 13:14:00,
2013-02-22 08:19:00,22.3,19.8,30.35,SW,214,1.0,6.0,90,0.00,,BKN010,0.00,VWS V14.01,2013-02-22 13:19:00,
2013-02-22 08:24:00,22.3,19.8,30.34,SSW,205,3.0,6.0,90,0.00,,BKN010,0.00,VWS V14.01,2013-02-22 13:24:00,
2013-02-22 08:29:00,22.4,19.9,30.34,SW,222,0.0,6.0,90,0.00,,BKN010,0.00,VWS V14.01,2013-02-22 13:29:00,
2013-02-22 08:30:00,23.5,20.7,30.32,East,88,1.0,5.0,89,0.00,,OVC,0.00,VWS V14.01,2013-02-22 13:30:00,
2013-02-22 08:34:00,22.4,19.9,30.33,SSW,195,4.0,4.0,90,0.00,,OVC010,0.00,VWS V14.01,2013-02-22 13:34:00,
2013-02-22 08:39:00,22.4,19.9,30.33,SE,139,1.0,6.0,90,0.00,,OVC010,0.00,VWS V14.01,2013-02-22 13:39:00,
2013-02-22 08:45:00,22.5,20.0,30.33,South,176,3.0,6.0,90,0.00,,OVC010,0.00,VWS V14.01,2013-02-22 13:45:00,
2013-02-22 08:50:00,22.6,20.1,30.31,ENE,77,1.0,8.0,90,0.00,,OVC010,0.00,VWS V14.01,2013-02-22 13:50:00,
2013-02-22 08:55:00,22.7,20.2,30.32,SE,131,1.0,8.0,90,0.00,,OVC010,0.00,VWS V14.01,2013-02-22 13:55:00,
2013-02-22 09:00:00,22.8,20.3,30.32,SSW,200,0.0,8.0,90,0.00,,OVC010,0.00,VWS V14.01,2013-02-22 14:00:00,
2013-02-22 09:05:00,22.9,20.4,30.32,South,191,1.0,3.0,90,0.00,,OVC010,0.00,VWS V14.01,2013-02-22 14:05:00,
2013-02-22 09:10:00,23.1,20.6,30.32,SE,143,1.0,4.0,90,0.00,,OVC010,0.00,VWS V14.01,2013-02-22 14:10:00,
2013-02-22 09:15:00,23.2,20.7,30.32,SSW,203,1.0,5.0,90,0.00,,OVC010,0.00,VWS V14.01,2013-02-22 14:15:00,
2013-02-22 09:21:00,23.3,20.8,30.33,South,170,0.0,5.0,90,0.00,,OVC010,0.00,VWS V14.01,2013-02-22 14:21:00,
2013-02-22 09:26:00,23.4,20.6,30.32,South,181,0.0,5.0,89,0.00,,OVC010,0.00,VWS V14.01,2013-02-22 14:26:00,
2013-02-22 09:30:00,26.3,21.6,30.28,SSW,203,6.0,10.0,82,0.00,,OVC,0.00,VWS V14.01,2013-02-22 14:30:00,
2013-02-22 09:31:00,23.5,20.7,30.32,SSE,159,2.0,5.0,89,0.00,,OVC010,0.00,VWS V14.01,2013-02-22 14:31:00,
2013-02-22 09:36:00,23.6,20.8,30.32,SW,222,3.0,3.0,89,0.00,,BKN010,0.00,VWS V14.01,2013-02-22 14:36:00,
2013-02-22 09:41:00,23.6,20.6,30.32,SSW,203,3.0,6.0,88,0.00,,BKN010,0.00,VWS V14.01,2013-02-22 14:41:00,
2013-02-22 09:46:00,23.8,20.8,30.32,ESE,103,1.0,6.0,88,0.00,,BKN010,0.00,VWS V14.01,2013-02-22 14:46:00,
2013-02-22 09:51:00,23.9,20.9,30.32,SW,219,1.0,6.0,88,0.00,,BKN010,0.00,VWS V14.01,2013-02-22 14:51:00,
2013-02-22 09:57:00,24.1,20.8,30.32,South,176,4.0,6.0,87,0.00,,BKN010,0.00,VWS V14.01,2013-02-22 14:57:00,
2013-02-22 10:00:00,26.9,22.1,30.26,SSE,166,3.0,10.0,82,0.00,,OVC,0.00,VWS V14.01,2013-02-22 15:00:00,
2013-02-22 10:02:00,24.4,21.1,30.31,South,180,2.0,6.0,87,0.00,,BKN010,0.00,VWS V14.01,2013-02-22 15:02:00,
2013-02-22 10:07:00,24.6,21.0,30.30,ESE,110,0.0,7.0,86,0.00,,SCT010,0.00,VWS V14.01,2013-02-22 15:07:00,
2013-02-22 10:12:00,25.0,21.4,30.30,SSW,200,2.0,7.0,86,0.00,,SCT010,0.00,VWS V14.01,2013-02-22 15:12:00,
2013-02-22 10:17:00,25.5,21.6,30.29,South,172,3.0,7.0,85,0.00,,SCT010,0.00,VWS V14.01,2013-02-22 15:17:00,
2013-02-22 10:22:00,25.9,21.7,30.29,SW,224,5.0,7.0,84,0.00,,SCT010,0.00,VWS V14.01,2013-02-22 15:22:00,
2013-02-22 10:27:00,26.3,21.6,30.28,South,188,7.0,10.0,82,0.00,,SCT010,0.00,VWS V14.01,2013-02-22 15:27:00,
2013-02-22 10:30:00,27.5,22.1,30.24,West,266,5.0,11.0,80,0.00,,OVC,0.00,VWS V14.01,2013-02-22 15:30:00,
2013-02-22 10:32:00,26.3,21.6,30.28,SSW,203,6.0,10.0,82,0.00,,SCT014,0.00,VWS V14.01,2013-02-22 15:32:00,
2013-02-22 10:38:00,26.5,21.8,30.27,SSE,167,4.0,10.0,82,0.00,,SCT014,0.00,VWS V14.01,2013-02-22 15:38:00,
2013-02-22 10:43:00,26.8,21.8,30.27,WSW,245,3.0,10.0,81,0.00,,SCT014,0.00,VWS V14.01,2013-02-22 15:43:00,
2013-02-22 10:48:00,27.0,22.0,30.27,WSW,245,4.0,10.0,81,0.00,,SCT014,0.00,VWS V14.01,2013-02-22 15:48:00,
2013-02-22 10:53:00,26.9,21.6,30.26,ESE,108,5.0,10.0,80,0.00,,SCT014,0.00,VWS V14.01,2013-02-22 15:53:00,
2013-02-22 10:58:00,26.7,21.7,30.25,SSW,209,4.0,10.0,81,0.00,,SCT014,0.00,VWS V14.01,2013-02-22 15:58:00,
2013-02-22 11:00:00,28.8,23.1,30.21,SE,124,4.0,9.0,79,0.00,,OVC,0.00,VWS V14.01,2013-02-22 16:00:00,
2013-02-22 11:03:00,27.0,22.2,30.26,SSW,195,2.0,3.0,82,0.00,,SCT014,0.00,VWS V14.01,2013-02-22 16:03:00,
2013-02-22 11:08:00,27.1,21.8,30.25,SW,231,4.0,9.0,80,0.00,,SCT014,0.00,VWS V14.01,2013-02-22 16:08:00,
2013-02-22 11:13:00,27.0,21.7,30.25,SSW,203,7.0,11.0,80,0.00,,SCT014,0.00,VWS V14.01,2013-02-22 16:13:00,
2013-02-22 11:18:00,27.0,21.7,30.25,SSE,152,5.0,11.0,80,0.00,,SCT014,0.00,VWS V14.01,2013-02-22 16:18:00,
2013-02-22 11:23:00,27.3,22.2,30.25,SSW,212,3.0,11.0,81,0.00,,SCT014,0.00,VWS V14.01,2013-02-22 16:23:00,
2013-02-22 11:28:00,27.5,22.1,30.24,South,186,2.0,11.0,80,0.00,,SCT014,0.00,VWS V14.01,2013-02-22 16:28:00,
2013-02-22 11:30:00,30.1,24.4,30.19,WSW,250,7.0,8.0,79,0.00,,OVC,0.00,VWS V14.01,2013-02-22 16:30:00,
2013-02-22 11:34:00,27.6,22.2,30.24,South,186,6.0,8.0,80,0.00,,FEW014,0.00,VWS V14.01,2013-02-22 16:34:00,
2013-02-22 11:39:00,27.9,22.5,30.24,South,191,5.0,9.0,80,0.00,,FEW014,0.00,VWS V14.01,2013-02-22 16:39:00,
2013-02-22 11:44:00,28.1,22.4,30.24,SSW,195,3.0,9.0,79,0.00,,FEW014,0.00,VWS V14.01,2013-02-22 16:44:00,
2013-02-22 11:49:00,28.2,22.5,30.23,SSW,200,3.0,9.0,79,0.00,,FEW014,0.00,VWS V14.01,2013-02-22 16:49:00,
2013-02-22 11:54:00,28.4,22.7,30.22,South,177,7.0,9.0,79,0.00,,FEW014,0.00,VWS V14.01,2013-02-22 16:54:00,
2013-02-22 11:59:00,28.6,22.9,30.21,WSW,243,1.0,9.0,79,0.00,,FEW014,0.00,VWS V14.01,2013-02-22 16:59:00,
2013-02-22 12:00:00,31.2,23.9,30.16,SW,215,4.0,10.0,74,0.00,,OVC,0.00,VWS V14.01,2013-02-22 17:00:00,
2013-02-22 12:04:00,28.8,23.1,30.21,South,170,2.0,5.0,79,0.00,,FEW014,0.00,VWS V14.01,2013-02-22 17:04:00,
2013-02-22 12:09:00,28.9,23.2,30.21,ESE,119,2.0,8.0,79,0.00,,FEW014,0.00,VWS V14.01,2013-02-22 17:09:00,
2013-02-22 12:14:00,29.0,23.0,30.20,South,180,4.0,8.0,78,0.00,,FEW014,0.00,VWS V14.01,2013-02-22 17:14:00,
2013-02-22 12:20:00,29.1,23.4,30.20,ESE,113,2.0,8.0,79,0.00,,FEW014,0.00,VWS V14.01,2013-02-22 17:20:00,
2013-02-22 12:25:00,29.3,23.6,30.20,South,180,4.0,8.0,79,0.00,,FEW014,0.00,VWS V14.01,2013-02-22 17:25:00,
2013-02-22 12:30:00,29.7,23.7,30.19,SE,139,4.0,8.0,78,0.00,,FEW014,0.00,VWS V14.01,2013-02-22 17:30:00,
2013-02-22 12:35:00,30.3,23.7,30.19,SE,146,5.0,8.0,76,0.00,,CLR,0.00,VWS V14.01,2013-02-22 17:35:00,
2013-02-22 12:40:00,30.5,23.5,30.19,SSW,200,6.0,10.0,75,0.00,,CLR,0.00,VWS V14.01,2013-02-22 17:40:00,
2013-02-22 12:45:00,30.6,23.3,30.19,SSE,155,4.0,10.0,74,0.00,,CLR,0.00,VWS V14.01,2013-02-22 17:45:00,
2013-02-22 12:50:00,30.7,23.1,30.18,South,187,4.0,10.0,73,0.00,,CLR,0.00,VWS V14.01,2013-02-22 17:50:00,
2013-02-22 12:55:00,30.9,23.6,30.17,ESE,103,5.0,10.0,74,0.00,,CLR,0.00,VWS V14.01,2013-02-22 17:55:00,
2013-02-22 13:00:00,31.1,23.5,30.16,SW,226,4.0,10.0,73,0.00,,CLR,0.00,VWS V14.01,2013-02-22 18:00:00,
2013-02-22 13:05:00,31.3,24.0,30.16,SSW,205,3.0,7.0,74,0.00,,CLR,0.00,VWS V14.01,2013-02-22 18:05:00,
2013-02-22 13:11:00,31.5,23.9,30.16,SSW,200,3.0,9.0,73,0.00,,CLR,0.00,VWS V14.01,2013-02-22 18:11:00,
2013-02-22 13:16:00,31.7,24.0,30.16,SSE,158,3.0,9.0,73,0.00,,CLR,0.00,VWS V14.01,2013-02-22 18:16:00,
2013-02-22 13:21:00,32.0,24.3,30.15,South,178,8.0,9.0,73,0.00,,CLR,0.00,VWS V14.01,2013-02-22 18:21:00,
2013-02-22 13:26:00,32.2,24.2,30.15,SSW,212,3.0,9.0,72,0.00,,CLR,0.00,VWS V14.01,2013-02-22 18:26:00,
2013-02-22 13:30:00,33.1,24.0,30.15,SSW,208,5.0,8.0,69,0.00,,OVC,0.00,VWS V14.01,2013-02-22 18:30:00,
2013-02-22 13:31:00,32.3,24.3,30.15,SSE,165,3.0,9.0,72,0.00,,CLR,0.00,VWS V14.01,2013-02-22 18:31:00,
2013-02-22 13:36:00,32.4,24.1,30.15,ESE,121,3.0,7.0,71,0.00,,BKN110,0.00,VWS V14.01,2013-02-22 18:36:00,
2013-02-22 13:41:00,32.6,24.2,30.15,SSE,167,1.0,8.0,71,0.00,,BKN110,0.00,VWS V14.01,2013-02-22 18:41:00,
2013-02-22 13:46:00,32.9,24.2,30.16,SSW,204,4.0,8.0,70,0.00,,BKN110,0.00,VWS V14.01,2013-02-22 18:46:00,
2013-02-22 13:51:00,33.0,24.3,30.16,WSW,239,2.0,8.0,70,0.00,,BKN110,0.00,VWS V14.01,2013-02-22 18:51:00,
2013-02-22 13:57:00,33.0,24.6,30.15,SSW,210,4.0,8.0,71,0.00,,BKN110,0.00,VWS V14.01,2013-02-22 18:57:00,
2013-02-22 14:00:00,31.2,26.1,30.14,South,180,5.0,9.0,81,0.00,,OVC,0.00,VWS V14.01,2013-02-22 19:00:00,
2013-02-22 14:02:00,32.9,23.9,30.15,SW,215,2.0,8.0,69,0.00,,BKN110,0.00,VWS V14.01,2013-02-22 19:02:00,
2013-02-22 14:07:00,33.1,24.4,30.15,SSW,201,4.0,6.0,70,0.00,,BKN110,0.00,VWS V14.01,2013-02-22 19:07:00,
2013-02-22 14:12:00,33.4,25.0,30.15,SSW,203,2.0,6.0,71,0.00,,BKN110,0.00,VWS V14.01,2013-02-22 19:12:00,
2013-02-22 14:17:00,33.7,25.3,30.14,SSW,205,2.0,6.0,71,0.00,,BKN110,0.00,VWS V14.01,2013-02-22 19:17:00,
2013-02-22 14:22:00,33.7,24.3,30.14,SSE,168,2.0,8.0,68,0.00,,BKN110,0.00,VWS V14.01,2013-02-22 19:22:00,
2013-02-22 14:27:00,33.6,24.5,30.15,SSW,204,4.0,8.0,69,0.00,,BKN110,0.00,VWS V14.01,2013-02-22 19:27:00,
2013-02-22 14:30:00,31.2,26.1,30.12,South,180,8.0,11.0,81,0.00,,OVC,0.00,VWS V14.01,2013-02-22 19:30:00,
2013-02-22 14:32:00,33.2,24.1,30.15,SW,222,4.0,8.0,69,0.00,,BKN110,0.00,VWS V14.01,2013-02-22 19:32:00,
2013-02-22 14:37:00,32.9,24.2,30.14,South,180,2.0,5.0,70,0.00,,BKN110,0.00,VWS V14.01,2013-02-22 19:37:00,
2013-02-22 14:42:00,32.7,24.7,30.15,South,179,3.0,5.0,72,0.00,,BKN110,0.00,VWS V14.01,2013-02-22 19:42:00,
2013-02-22 14:48:00,32.5,24.5,30.14,SSE,165,6.0,7.0,72,0.00,,BKN110,0.00,VWS V14.01,2013-02-22 19:48:00,
2013-02-22 14:53:00,31.7,25.9,30.15,SW,235,2.0,9.0,79,0.00,,BKN110,0.00,VWS V14.01,2013-02-22 19:53:00,
2013-02-22 14:58:00,31.3,26.2,30.15,SW,215,2.0,9.0,81,0.00,,BKN110,0.00,VWS V14.01,2013-02-22 19:58:00,
2013-02-22 15:00:00,32.1,25.7,30.11,SSW,197,2.0,8.0,77,0.00,,OVC,0.00,VWS V14.01,2013-02-22 20:00:00,
2013-02-22 15:03:00,31.2,26.1,30.14,SSW,201,3.0,6.0,81,0.00,,OVC100,0.00,VWS V14.01,2013-02-22 20:03:00,
2013-02-22 15:08:00,31.2,26.1,30.13,South,183,3.0,11.0,81,0.00,,OVC100,0.00,VWS V14.01,2013-02-22 20:08:00,
2013-02-22 15:13:00,31.1,26.3,30.13,SE,136,4.0,11.0,82,0.00,,OVC100,0.00,VWS V14.01,2013-02-22 20:13:00,
2013-02-22 15:18:00,31.1,26.3,30.12,SW,236,2.0,11.0,82,0.00,,OVC100,0.00,VWS V14.01,2013-02-22 20:18:00,
2013-02-22 15:23:00,31.1,26.3,30.13,SW,224,3.0,11.0,82,0.00,,OVC100,0.00,VWS V14.01,2013-02-22 20:23:00,
2013-02-22 15:28:00,31.1,26.3,30.13,South,170,4.0,11.0,82,0.00,,OVC100,0.00,VWS V14.01,2013-02-22 20:28:00,
2013-02-22 15:30:00,33.2,25.2,30.11,SSW,203,3.0,8.0,72,0.00,,OVC,0.00,VWS V14.01,2013-02-22 20:30:00,
2013-02-22 15:34:00,31.3,25.9,30.12,WSW,238,1.0,8.0,80,0.00,,,0.00,VWS V14.01,2013-02-22 20:34:00,
2013-02-22 15:39:00,31.5,26.0,30.12,South,174,5.0,8.0,80,0.00,,,0.00,VWS V14.01,2013-02-22 20:39:00,
2013-02-22 15:44:00,31.6,26.1,30.12,SSW,194,3.0,8.0,80,0.00,,,0.00,VWS V14.01,2013-02-22 20:44:00,
2013-02-22 15:49:00,31.6,26.1,30.12,SE,134,2.0,8.0,80,0.00,,,0.00,VWS V14.01,2013-02-22 20:49:00,
2013-02-22 15:54:00,31.7,25.9,30.12,SSW,194,2.0,8.0,79,0.00,,,0.00,VWS V14.01,2013-02-22 20:54:00,
2013-02-22 15:59:00,31.9,25.8,30.12,SSE,150,3.0,8.0,78,0.00,,,0.00,VWS V14.01,2013-02-22 20:59:00,
2013-02-22 16:00:00,33.3,26.6,30.10,South,172,3.0,11.0,76,0.00,,OVC,0.00,VWS V14.01,2013-02-22 21:00:00,
2013-02-22 16:04:00,32.2,25.8,30.11,South,187,3.0,4.0,77,0.00,,,0.00,VWS V14.01,2013-02-22 21:04:00,
2013-02-22 16:09:00,32.4,25.4,30.12,SSE,158,4.0,5.0,75,0.00,,,0.00,VWS V14.01,2013-02-22 21:09:00,
2013-02-22 16:14:00,32.6,25.6,30.11,SSW,204,3.0,6.0,75,0.00,,,0.00,VWS V14.01,2013-02-22 21:14:00,
2013-02-22 16:19:00,32.8,25.1,30.11,South,175,3.0,6.0,73,0.00,,,0.00,VWS V14.01,2013-02-22 21:19:00,
2013-02-22 16:25:00,33.0,25.0,30.11,South,169,2.0,6.0,72,0.00,,,0.00,VWS V14.01,2013-02-22 21:25:00,
2013-02-22 16:30:00,33.2,25.5,30.11,SSE,167,5.0,8.0,73,0.00,,,0.00,VWS V14.01,2013-02-22 21:30:00,
2013-02-22 16:35:00,33.3,25.3,30.10,SW,217,9.0,9.0,72,0.00,,OVC049,0.00,VWS V14.01,2013-02-22 21:35:00,
2013-02-22 16:40:00,33.3,25.3,30.10,South,170,3.0,9.0,72,0.00,,OVC049,0.00,VWS V14.01,2013-02-22 21:40:00,
2013-02-22 16:45:00,33.5,25.1,30.10,SSE,166,2.0,9.0,71,0.00,,OVC049,0.00,VWS V14.01,2013-02-22 21:45:00,
2013-02-22 16:50:00,33.6,24.9,30.10,SSE,166,5.0,10.0,70,0.00,,OVC049,0.00,VWS V14.01,2013-02-22 21:50:00,
2013-02-22 16:55:00,33.7,25.6,30.10,South,186,5.0,11.0,72,0.00,,OVC049,0.00,VWS V14.01,2013-02-22 21:55:00,
2013-02-22 17:00:00,33.3,26.2,30.10,South,185,5.0,11.0,75,0.00,,OVC049,0.00,VWS V14.01,2013-02-22 22:00:00,
2013-02-22 17:05:00,33.1,26.4,30.10,SE,129,3.0,6.0,76,0.00,,OVC049,0.00,VWS V14.01,2013-02-22 22:05:00,
2013-02-22 17:10:00,33.0,26.6,30.10,SSE,163,1.0,10.0,77,0.00,,OVC049,0.00,VWS V14.01,2013-02-22 22:10:00,
2013-02-22 17:16:00,33.0,26.6,30.09,South,187,3.0,10.0,77,0.00,,OVC049,0.00,VWS V14.01,2013-02-22 22:16:00,
2013-02-22 17:21:00,32.9,26.5,30.09,South,186,2.0,10.0,77,0.00,,OVC049,0.00,VWS V14.01,2013-02-22 22:21:00,
2013-02-22 17:26:00,33.0,26.6,30.10,South,183,6.0,10.0,77,0.00,,OVC049,0.00,VWS V14.01,2013-02-22 22:26:00,
2013-02-22 17:30:00,34.1,26.4,30.09,South,172,7.0,16.0,73,0.00,,OVC,0.00,VWS V14.01,2013-02-22 22:30:00,
2013-02-22 17:31:00,33.1,26.7,30.10,SSE,153,4.0,10.0,77,0.00,,OVC049,0.00,VWS V14.01,2013-02-22 22:31:00,
2013-02-22 17:36:00,33.1,26.7,30.09,SSW,200,2.0,3.0,77,0.00,,,0.00,VWS V14.01,2013-02-22 22:36:00,
2013-02-22 17:41:00,33.2,26.8,30.10,SSE,150,4.0,9.0,77,0.00,,,0.00,VWS V14.01,2013-02-22 22:41:00,
2013-02-22 17:46:00,33.3,26.6,30.10,SSW,193,4.0,9.0,76,0.00,,,0.00,VWS V14.01,2013-02-22 22:46:00,
2013-02-22 17:51:00,33.5,26.8,30.09,SSW,207,5.0,9.0,76,0.00,,,0.00,VWS V14.01,2013-02-22 22:51:00,
2013-02-22 17:56:00,33.6,26.2,30.09,SSE,153,4.0,12.0,74,0.00,,,0.00,VWS V14.01,2013-02-22 22:56:00,
2013-02-22 18:00:00,33.6,25.9,30.08,SW,228,7.0,17.0,73,0.00,,OVC,0.00,VWS V14.01,2013-02-22 23:00:00,
2013-02-22 18:02:00,33.8,26.4,30.09,South,185,2.0,12.0,74,0.00,,,0.00,VWS V14.01,2013-02-22 23:02:00,
2013-02-22 18:07:00,33.9,26.5,30.09,SW,219,7.0,15.0,74,0.00,,,0.00,VWS V14.01,2013-02-22 23:07:00,
2013-02-22 18:12:00,33.9,26.5,30.09,SSE,167,3.0,15.0,74,0.00,,,0.00,VWS V14.01,2013-02-22 23:12:00,
2013-02-22 18:17:00,34.0,26.3,30.09,SSW,208,3.0,16.0,73,0.00,,,0.00,VWS V14.01,2013-02-22 23:17:00,
2013-02-22 18:22:00,34.0,26.3,30.08,SSW,203,10.0,16.0,73,0.00,,,0.00,VWS V14.01,2013-02-22 23:22:00,
2013-02-22 18:27:00,34.1,26.4,30.08,South,183,7.0,16.0,73,0.00,,,0.00,VWS V14.01,2013-02-22 23:27:00,
2013-02-22 18:30:00,33.1,26.0,30.08,SW,221,10.0,15.0,75,0.00,,OVC,0.00,VWS V14.01,2013-02-22 23:30:00,
2013-02-22 18:32:00,34.1,26.4,30.09,South,172,7.0,16.0,73,0.00,,OVC034,0.00,VWS V14.01,2013-02-22 23:32:00,
2013-02-22 18:38:00,34.0,26.3,30.08,SSW,197,4.0,13.0,73,0.00,,OVC034,0.00,VWS V14.01,2013-02-22 23:38:00,
2013-02-22 18:43:00,33.9,26.2,30.08,SW,236,3.0,13.0,73,0.00,,OVC034,0.00,VWS V14.01,2013-02-22 23:43:00,
2013-02-22 18:48:00,33.8,26.1,30.09,SW,233,3.0,13.0,73,0.00,,OVC034,0.00,VWS V14.01,2013-02-22 23:48:00,
2013-02-22 18:53:00,33.7,26.3,30.08,SSE,158,5.0,15.0,74,0.00,,OVC034,0.00,VWS V14.01,2013-02-22 23:53:00,
2013-02-22 18:58:00,33.7,26.3,30.08,SSW,203,9.0,15.0,74,0.00,,OVC034,0.00,VWS V14.01,2013-02-22 23:58:00,
2013-02-22 19:00:00,32.9,26.2,30.08,SSW,195,5.0,12.0,76,0.00,,OVC,0.00,VWS V14.01,2013-02-23 00:00:00,
2013-02-22 19:03:00,33.6,26.2,30.08,SSW,204,7.0,11.0,74,0.00,,OVC034,0.00,VWS V14.01,2013-02-23 00:03:00,
2013-02-22 19:09:00,33.5,26.1,30.08,SSW,203,6.0,15.0,74,0.00,,OVC034,0.00,VWS V14.01,2013-02-23 00:09:00,
2013-02-22 19:14:00,33.4,26.0,30.08,SW,222,5.0,15.0,74,0.00,,OVC034,0.00,VWS V14.01,2013-02-23 00:14:00,
2013-02-22 19:19:00,33.3,25.9,30.08,SW,220,6.0,15.0,74,0.00,,OVC028,0.00,VWS V14.01,2013-02-23 00:19:00,
2013-02-22 19:24:00,33.2,26.1,30.08,SSW,203,7.0,15.0,75,0.00,,OVC028,0.00,VWS V14.01,2013-02-23 00:24:00,
2013-02-22 19:29:00,33.1,26.0,30.08,SSW,212,5.0,15.0,75,0.00,,OVC028,0.00,VWS V14.01,2013-02-23 00:29:00,
2013-02-22 19:30:00,32.9,26.5,30.08,SSW,210,3.0,11.0,77,0.00,,OVC,0.00,VWS V14.01,2013-02-23 00:30:00,
2013-02-22 19:34:00,33.1,26.0,30.08,South,172,2.0,10.0,75,0.00,,OVC028,0.00,VWS V14.01,2013-02-23 00:34:00,
2013-02-22 19:39:00,33.1,26.0,30.08,SSW,203,4.0,12.0,75,0.00,,OVC028,0.00,VWS V14.01,2013-02-23 00:39:00,
2013-02-22 19:44:00,33.0,26.3,30.08,SSW,205,4.0,12.0,76,0.00,,OVC028,0.00,VWS V14.01,2013-02-23 00:44:00,
2013-02-22 19:50:00,32.9,25.9,30.08,SSW,194,4.0,12.0,75,0.00,,OVC028,0.00,VWS V14.01,2013-02-23 00:50:00,
2013-02-22 19:55:00,32.9,26.2,30.08,SW,222,5.0,12.0,76,0.00,,OVC028,0.00,VWS V14.01,2013-02-23 00:55:00,
2013-02-22 20:00:00,32.9,26.2,30.08,South,191,3.0,12.0,76,0.00,,OVC028,0.00,VWS V14.01,2013-02-23 01:00:00,
2013-02-22 20:05:00,32.9,26.2,30.08,SSW,212,4.0,5.0,76,0.00,,OVC028,0.00,VWS V14.01,2013-02-23 01:05:00,
2013-02-22 20:10:00,32.9,26.2,30.08,SSW,205,3.0,9.0,76,0.00,,OVC028,0.00,VWS V14.01,2013-02-23 01:10:00,
2013-02-22 20:15:00,32.9,26.2,30.08,SSW,205,3.0,11.0,76,0.00,,OVC028,0.00,VWS V14.01,2013-02-23 01:15:00,
2013-02-22 20:20:00,32.9,26.5,30.08,SSW,197,2.0,11.0,77,0.00,,OVC028,0.00,VWS V14.01,2013-02-23 01:20:00,
2013-02-22 20:25:00,32.9,26.5,30.08,SW,229,4.0,11.0,77,0.00,,OVC028,0.00,VWS V14.01,2013-02-23 01:25:00,
2013-02-22 20:30:00,31.7,26.2,30.08,SSW,208,4.0,8.0,80,0.00,,OVC,0.00,VWS V14.01,2013-02-23 01:30:00,
2013-02-22 20:31:00,32.9,26.5,30.08,SSE,166,4.0,11.0,77,0.00,,OVC028,0.00,VWS V14.01,2013-02-23 01:31:00,
2013-02-22 20:36:00,32.9,26.5,30.08,SSW,212,4.0,4.0,77,0.00,,OVC028,0.00,VWS V14.01,2013-02-23 01:36:00,
2013-02-22 20:41:00,32.9,26.5,30.08,SSW,197,2.0,9.0,77,0.00,,OVC028,0.00,VWS V14.01,2013-02-23 01:41:00,
2013-02-22 20:46:00,32.8,26.7,30.08,SSW,211,4.0,9.0,78,0.00,,OVC028,0.00,VWS V14.01,2013-02-23 01:46:00,
2013-02-22 20:51:00,32.8,26.7,30.08,SSW,211,2.0,9.0,78,0.00,,OVC028,0.00,VWS V14.01,2013-02-23 01:51:00,
2013-02-22 20:56:00,32.8,26.7,30.08,SW,225,5.0,10.0,78,0.00,,OVC028,0.00,VWS V14.01,2013-02-23 01:56:00,
2013-02-22 21:00:00,31.3,26.2,30.06,SSW,211,4.0,7.0,81,0.00,,OVC,0.00,VWS V14.01,2013-02-23 02:00:00,
2013-02-22 21:01:00,32.8,26.7,30.08,SW,228,7.0,12.0,78,0.00,,OVC028,0.00,VWS V14.01,2013-02-23 02:01:00,
2013-02-22 21:07:00,32.7,26.6,30.09,WSW,239,3.0,7.0,78,0.00,,OVC026,0.00,VWS V14.01,2013-02-23 02:07:00,
2013-02-22 21:12:00,32.5,26.7,30.09,South,172,1.0,8.0,79,0.00,,OVC026,0.00,VWS V14.01,2013-02-23 02:12:00,
2013-02-22 21:17:00,32.3,26.5,30.09,SSE,151,1.0,8.0,79,0.00,,OVC026,0.00,VWS V14.01,2013-02-23 02:17:00,
2013-02-22 21:22:00,32.2,26.4,30.09,SSW,211,1.0,8.0,79,0.00,,OVC026,0.00,VWS V14.01,2013-02-23 02:22:00,
2013-02-22 21:27:00,31.9,26.4,30.09,SSW,211,2.0,8.0,80,0.00,,OVC026,0.00,VWS V14.01,2013-02-23 02:27:00,
2013-02-22 21:30:00,31.4,26.2,30.05,SW,236,4.0,11.0,81,0.00,,OVC,0.00,VWS V14.01,2013-02-23 02:30:00,
2013-02-22 21:32:00,31.7,26.2,30.09,SSW,203,2.0,8.0,80,0.00,,OVC043,0.00,VWS V14.01,2013-02-23 02:32:00,
2013-02-22 21:37:00,31.6,26.1,30.08,WSW,245,5.0,7.0,80,0.00,,OVC043,0.00,VWS V14.01,2013-02-23 02:37:00,
2013-02-22 21:43:00,31.4,26.2,30.08,SSE,157,2.0,7.0,81,0.00,,OVC043,0.00,VWS V14.01,2013-02-23 02:43:00,
2013-02-22 21:48:00,31.3,26.2,30.07,SW,219,3.0,7.0,81,0.00,,OVC043,0.00,VWS V14.01,2013-02-23 02:48:00,
2013-02-22 21:53:00,31.3,26.2,30.08,SSE,164,2.0,7.0,81,0.00,,OVC043,0.00,VWS V14.01,2013-02-23 02:53:00,
2013-02-22 21:58:00,31.3,26.2,30.07,WNW,284,0.0,7.0,81,0.00,,OVC043,0.00,VWS V14.01,2013-02-23 02:58:00,
2013-02-22 22:00:00,31.5,26.6,30.05,SW,222,5.0,8.0,82,0.00,,OVC,0.00,VWS V14.01,2013-02-23 03:00:00,
2013-02-22 22:03:00,31.3,26.2,30.06,SW,221,5.0,8.0,81,0.00,,OVC043,0.00,VWS V14.01,2013-02-23 03:03:00,
2013-02-22 22:08:00,31.5,26.4,30.06,SW,231,6.0,9.0,81,0.00,,OVC043,0.00,VWS V14.01,2013-02-23 03:08:00,
2013-02-22 22:14:00,31.5,26.4,30.05,SSW,208,2.0,11.0,81,0.00,,OVC043,0.00,VWS V14.01,2013-02-23 03:14:00,
2013-02-22 22:19:00,31.4,26.2,30.05,SSW,211,2.0,11.0,81,0.00,,OVC043,0.00,VWS V14.01,2013-02-23 03:19:00,
2013-02-22 22:24:00,31.4,26.2,30.05,SW,225,4.0,11.0,81,0.00,,OVC043,0.00,VWS V14.01,2013-02-23 03:24:00,
2013-02-22 22:29:00,31.5,26.4,30.05,SW,232,0.0,11.0,81,0.00,,OVC043,0.00,VWS V14.01,2013-02-23 03:29:00,
2013-02-22 22:30:00,32.4,27.5,30.04,SW,215,4.0,10.0,82,0.00,,OVC,0.00,VWS V14.01,2013-02-23 03:30:00,
2013-02-22 22:34:00,31.4,26.2,30.05,SW,226,5.0,5.0,81,0.00,,BKN070,0.00,VWS V14.01,2013-02-23 03:34:00,
2013-02-22 22:39:00,31.5,26.4,30.06,South,176,5.0,8.0,81,0.00,,BKN070,0.00,VWS V14.01,2013-02-23 03:39:00,
2013-02-22 22:44:00,31.5,26.4,30.05,SSW,194,1.0,8.0,81,0.00,,BKN070,0.00,VWS V14.01,2013-02-23 03:44:00,
2013-02-22 22:50:00,31.5,26.4,30.05,SSW,203,2.0,8.0,81,0.00,,BKN070,0.00,VWS V14.01,2013-02-23 03:50:00,
2013-02-22 22:55:00,31.4,26.5,30.06,SW,232,4.0,8.0,82,0.00,,BKN070,0.00,VWS V14.01,2013-02-23 03:55:00,
2013-02-22 23:00:00,31.5,26.6,30.05,SSW,203,3.0,8.0,82,0.00,,BKN070,0.00,VWS V14.01,2013-02-23 04:00:00,
2013-02-22 23:05:00,31.6,26.8,30.05,SSW,203,4.0,6.0,82,0.00,,BKN070,0.00,VWS V14.01,2013-02-23 04:05:00,
2013-02-22 23:10:00,31.7,26.8,30.04,SW,226,7.0,8.0,82,0.00,,BKN070,0.00,VWS V14.01,2013-02-23 04:10:00,
2013-02-22 23:15:00,31.9,27.0,30.04,SW,217,7.0,10.0,82,0.00,,BKN070,0.00,VWS V14.01,2013-02-23 04:15:00,
2013-02-22 23:20:00,32.0,27.1,30.04,SW,217,6.0,10.0,82,0.00,,BKN070,0.00,VWS V14.01,2013-02-23 04:20:00,
2013-02-22 23:25:00,32.2,27.3,30.05,SW,229,6.0,10.0,82,0.00,,BKN070,0.00,VWS V14.01,2013-02-23 04:25:00,
2013-02-22 23:30:00,32.6,27.1,30.04,WSW,257,2.0,11.0,80,0.00,,OVC,0.00,VWS V14.01,2013-02-23 04:30:00,
2013-02-22 23:31:00,32.4,27.5,30.04,SW,226,5.0,10.0,82,0.00,,BKN070,0.00,VWS V14.01,2013-02-23 04:31:00,
2013-02-22 23:36:00,32.5,27.6,30.05,WSW,252,4.0,6.0,82,0.00,,BKN070,0.00,VWS V14.01,2013-02-23 04:36:00,
2013-02-22 23:41:00,32.7,27.5,30.05,WSW,241,5.0,7.0,81,0.00,,BKN070,0.00,VWS V14.01,2013-02-23 04:41:00,
2013-02-22 23:46:00,32.7,27.5,30.04,SW,236,6.0,10.0,81,0.00,,BKN070,0.00,VWS V14.01,2013-02-23 04:46:00,
2013-02-22 23:51:00,32.7,27.5,30.05,SW,214,4.0,10.0,81,0.00,,BKN070,0.00,VWS V14.01,2013-02-23 04:51:00,
2013-02-22 23:56:00,32.7,27.5,30.05,SSW,203,4.0,10.0,81,0.00,,BKN070,0.00,VWS V14.01,2013-02-23 04:56:00,